This is the latest recevied weather packets stored in our database for station/object DL5ARK. If no packets are shown the sender has not sent any weather packets the latest 10 day(s).
| Time | Temp. | Humidity | Pressure | Rain* | Wind** | Luminosity | Snow |
|---|---|---|---|---|---|---|---|
| 1777394387 | 16.11° C | 43% | 1007.7 hPa | 0 mm | - | - | - |
| 1777394207 | 16.67° C | 43% | 1007.7 hPa | 0 mm | - | - | - |
| 1777394028 | 16.67° C | 42% | 1007.7 hPa | 0 mm | - | - | - |
| 1777393847 | 17.22° C | 44% | 1008 hPa | 0 mm | - | - | - |
| 1777393667 | 16.67° C | 42% | 1007.7 hPa | 0 mm | - | - | - |
| 1777393491 | 17.22° C | 44% | 1007.7 hPa | 0 mm | - | - | - |
| 1777393307 | 17.22° C | 44% | 1007.7 hPa | 0 mm | - | - | - |
| 1777393127 | 17.22° C | 44% | 1007.7 hPa | 0 mm | - | - | - |
| 1777392947 | 17.22° C | 42% | 1007.7 hPa | 0 mm | - | - | - |
| 1777392768 | 17.22° C | 43% | 1007.7 hPa | 0 mm | - | - | - |
| 1777392587 | 17.22° C | 45% | 1007.7 hPa | 0 mm | - | - | - |
| 1777392408 | 17.22° C | 43% | 1007.7 hPa | 0 mm | - | - | - |
| 1777392228 | 17.22° C | 43% | 1007.7 hPa | 0 mm | - | - | - |
| 1777392048 | 17.22° C | 42% | 1007.7 hPa | 0 mm | - | - | - |
| 1777391867 | 17.78° C | 42% | 1007.7 hPa | 0 mm | - | - | - |
| 1777391687 | 17.78° C | 41% | 1007.7 hPa | 0 mm | - | - | - |
| 1777391327 | 18.33° C | 42% | 1007.7 hPa | 0 mm | - | - | - |
| 1777390967 | 17.78° C | 40% | 1008 hPa | 0 mm | - | - | - |
| 1777390788 | 18.89° C | 44% | 1008 hPa | 0 mm | - | - | - |
| 1777390608 | 18.33° C | 41% | 1007.7 hPa | 0 mm | - | - | - |
| 1777390428 | 18.33° C | 44% | 1008 hPa | 0 mm | - | - | - |
| 1777390248 | 17.78° C | 43% | 1008 hPa | 0 mm | - | - | - |
| 1777390068 | 17.78° C | 44% | 1007.7 hPa | 0 mm | - | - | - |
| 1777389887 | 17.22° C | 43% | 1007.7 hPa | 0 mm | - | - | - |
| 1777389707 | 17.78° C | 44% | 1008 hPa | 0 mm | - | - | - |
* Rain latest hour (hover to see other rain measurements)
** Current wind speed in m/s (hover to see current wind gust speed)